Harrisburg International Airport (MDT/KMDT)

Map

Destinations

Information

Location
Harrisburg, PA
Local Time
19:24 / 7:24 pm
GMT Time
00:24 / 12:24 am
Gates
Unassigned
No FAA reported delays
METAR KMDT 222356Z 13005KT 10SM BKN250 11/06 A2988 RMK AO2 SLP120 T01060056 10167 20100 55002
TAF KMDT 222357Z 2300/2324 15003KT P6SM FEW100 BKN200 FM230500 15002KT 4SM BR SCT010 BKN080 FM230800 00000KT 3/4SM BR OVC003 FM231400 18003KT 4SM BR OVC012 FM231600 20006KT P6SM BKN060
  • No charts available